createdAt,value
2023-04-04T00:03:43.892Z,98783.22
2023-04-04T00:07:56.458Z,98796.13
2023-04-04T00:12:08.964Z,98793.88
2023-04-04T00:16:22.668Z,98791.22
2023-04-04T00:20:35.141Z,98793.13
2023-04-04T00:24:47.586Z,98797.81
2023-04-04T00:29:00.124Z,98801.53
2023-04-04T00:33:12.793Z,98801.59
2023-04-04T00:37:25.316Z,98805.19
2023-04-04T00:41:39.973Z,98805.28
2023-04-04T00:45:52.740Z,98807.25
2023-04-04T00:50:06.317Z,98804.75
2023-04-04T00:54:18.906Z,98810.22
2023-04-04T00:58:31.862Z,98823.31
2023-04-04T01:02:44.502Z,98818.94
2023-04-04T01:06:57.444Z,98809.31
2023-04-04T01:11:10.956Z,98806.56
2023-04-04T01:15:23.888Z,98807.50
2023-04-04T01:19:43.885Z,98821.56
2023-04-04T01:24:03.391Z,98818.16
2023-04-04T01:28:23.613Z,98815.34
2023-04-04T01:32:52.065Z,98820.72
2023-04-04T01:37:11.917Z,98813.75
2023-04-04T01:41:25.709Z,98818.41
2023-04-04T01:45:42.844Z,98818.28
2023-04-04T01:49:57.897Z,98821.84
2023-04-04T01:54:11.109Z,98827.31
2023-04-04T01:58:23.633Z,98822.88
2023-04-04T02:02:36.327Z,98825.47
2023-04-04T02:06:48.722Z,98831.69
2023-04-04T02:11:01.787Z,98828.19
2023-04-04T02:15:14.456Z,98828.50
2023-04-04T02:19:28.009Z,98823.31
2023-04-04T02:23:40.614Z,98826.88
2023-04-04T02:27:53.124Z,98827.00
2023-04-04T02:32:06.148Z,98827.16
2023-04-04T02:36:18.686Z,98832.53
2023-04-04T02:40:32.823Z,98828.31
2023-04-04T02:44:45.215Z,98828.16
2023-04-04T02:49:02.284Z,98829.28
2023-04-04T02:53:16.040Z,98827.53
2023-04-04T02:57:29.987Z,98817.88
2023-04-04T03:01:42.788Z,98820.69
2023-04-04T03:05:55.294Z,98823.25
2023-04-04T03:10:08.145Z,98819.06
2023-04-04T03:14:20.992Z,98828.78
2023-04-04T03:18:34.958Z,98826.06
2023-04-04T03:22:47.434Z,98828.63
2023-04-04T03:27:01.849Z,98827.25
2023-04-04T03:31:14.416Z,98834.34
2023-04-04T03:35:28.156Z,98830.69
2023-04-04T03:39:41.044Z,98839.47
2023-04-04T03:43:53.768Z,98846.69
2023-04-04T03:48:06.464Z,98843.91
2023-04-04T03:52:19.124Z,98843.00
2023-04-04T03:56:34.490Z,98850.19
2023-04-04T04:00:50.409Z,98853.19
2023-04-04T04:05:04.111Z,98855.94
2023-04-04T04:09:16.566Z,98855.28
2023-04-04T04:13:29.690Z,98859.78
2023-04-04T04:17:42.384Z,98869.72
2023-04-04T04:21:57.197Z,98871.66
2023-04-04T04:26:09.820Z,98870.72
2023-04-04T04:30:22.311Z,98884.63
2023-04-04T04:34:34.897Z,98890.31
2023-04-04T04:38:48.224Z,98889.28
2023-04-04T04:43:01.733Z,98898.03
2023-04-04T04:47:14.231Z,98898.84
2023-04-04T04:51:27.698Z,98896.84
2023-04-04T04:55:45.055Z,98905.44
2023-04-04T04:59:57.436Z,98904.28
2023-04-04T05:04:12.464Z,98913.78
2023-04-04T05:08:34.461Z,98914.72
2023-04-04T05:13:00.605Z,98925.78
2023-04-04T05:17:18.370Z,98925.41
2023-04-04T05:21:31.213Z,98935.91
2023-04-04T05:25:45.376Z,98927.13
2023-04-04T05:29:58.565Z,98935.19
2023-04-04T05:34:18.748Z,98931.00
2023-04-04T05:38:33.476Z,98938.44
2023-04-04T05:42:55.124Z,98948.84
2023-04-04T05:47:09.554Z,98948.31
2023-04-04T05:51:25.119Z,98954.91
2023-04-04T05:55:45.025Z,98946.78
2023-04-04T05:59:57.770Z,98953.25
2023-04-04T06:04:10.346Z,98961.06
2023-04-04T06:08:23.095Z,98952.44
2023-04-04T06:12:35.755Z,98959.66
2023-04-04T06:16:52.613Z,98954.53
2023-04-04T06:21:05.096Z,98960.75
2023-04-04T06:25:18.371Z,98969.13
2023-04-04T06:29:32.460Z,98962.78
2023-04-04T06:33:46.627Z,98961.53
2023-04-04T06:38:00.164Z,98959.28
2023-04-04T06:42:14.235Z,98963.25
2023-04-04T06:46:33.528Z,98963.91
2023-04-04T06:50:46.480Z,98959.44
2023-04-04T06:55:01.454Z,98969.66
2023-04-04T06:59:15.492Z,98967.06
2023-04-04T07:03:28.097Z,98969.25
2023-04-04T07:07:40.487Z,98973.28
2023-04-04T07:11:52.838Z,98973.41
2023-04-04T07:16:06.410Z,98984.59
2023-04-04T07:20:18.919Z,98979.66
2023-04-04T07:24:31.407Z,98997.09
2023-04-04T07:28:43.860Z,99002.84
2023-04-04T07:33:03.450Z,99004.06
2023-04-04T07:37:16.101Z,99008.88
2023-04-04T07:41:28.576Z,99017.66
2023-04-04T07:45:41.243Z,99022.44
2023-04-04T07:49:53.751Z,99024.47
2023-04-04T07:54:06.402Z,99022.59
2023-04-04T07:58:18.830Z,99035.53
2023-04-04T08:02:31.973Z,99039.47
2023-04-04T08:06:44.480Z,99037.16
2023-04-04T08:10:57.898Z,99033.91
2023-04-04T08:15:11.162Z,99045.53
2023-04-04T08:19:24.013Z,99046.53
2023-04-04T08:23:36.648Z,99057.13
2023-04-04T08:27:49.143Z,99063.47
2023-04-04T08:32:01.647Z,99077.66
2023-04-04T08:36:14.098Z,99090.16
2023-04-04T08:40:26.611Z,99095.06
2023-04-04T08:44:42.363Z,99095.78
2023-04-04T08:48:57.576Z,99094.31
2023-04-04T08:53:12.091Z,99096.69
2023-04-04T08:57:24.708Z,99104.00
2023-04-04T09:01:37.775Z,99114.50
2023-04-04T09:05:51.142Z,99105.84
2023-04-04T09:10:04.428Z,99118.88
2023-04-04T09:14:17.767Z,99116.72
2023-04-04T09:18:32.671Z,99122.41
2023-04-04T09:22:46.105Z,99120.91
2023-04-04T09:26:58.635Z,99127.66
2023-04-04T09:31:12.157Z,99136.16
2023-04-04T09:35:24.785Z,99141.47
2023-04-04T09:39:40.574Z,99139.53
2023-04-04T09:43:53.312Z,99140.94
2023-04-04T09:48:08.139Z,99146.06
2023-04-04T09:52:21.796Z,99149.00
2023-04-04T09:56:34.830Z,99152.19
2023-04-04T10:00:48.862Z,99159.00
2023-04-04T10:09:16.818Z,99166.69
2023-04-04T10:13:36.009Z,99175.34
2023-04-04T10:17:50.086Z,99184.84
2023-04-04T10:22:02.862Z,99180.75
2023-04-04T10:26:15.947Z,99188.63
2023-04-04T10:30:28.396Z,99192.63
2023-04-04T10:34:50.092Z,99193.88
2023-04-04T10:39:29.256Z,99191.19
2023-04-04T10:43:45.050Z,99187.41
2023-04-04T10:47:57.772Z,99198.78
2023-04-04T10:52:13.588Z,99208.53
2023-04-04T10:56:26.606Z,99213.50
2023-04-04T11:00:55.511Z,99217.16
2023-04-04T11:05:23.078Z,99217.19
2023-04-04T11:09:52.171Z,99212.47
2023-04-04T11:14:05.776Z,99220.25
2023-04-04T11:18:32.786Z,99227.94
2023-04-04T11:22:46.240Z,99225.59
2023-04-04T11:26:58.836Z,99222.94
2023-04-04T11:31:20.984Z,99229.72
2023-04-04T11:35:33.397Z,99235.22
2023-04-04T11:39:57.600Z,99240.44
2023-04-04T11:44:10.924Z,99244.03
2023-04-04T11:48:24.012Z,99232.63
2023-04-04T11:52:36.624Z,99237.84
2023-04-04T11:56:49.390Z,99233.44
2023-04-04T12:01:01.920Z,99235.53
2023-04-04T12:05:14.869Z,99234.56
2023-04-04T12:09:27.448Z,99242.31
2023-04-04T12:13:44.939Z,99248.38
2023-04-04T12:17:57.814Z,99261.72
2023-04-04T12:22:10.445Z,99253.97
2023-04-04T12:26:23.000Z,99263.75
2023-04-04T12:30:35.813Z,99260.22
2023-04-04T12:34:49.961Z,99268.34
2023-04-04T12:39:07.853Z,99273.44
2023-04-04T12:43:21.090Z,99280.63
2023-04-04T12:47:34.432Z,99274.81
2023-04-04T12:51:46.885Z,99282.03
2023-04-04T12:56:05.172Z,99292.44
2023-04-04T13:00:20.080Z,99293.44
2023-04-04T13:04:33.595Z,99296.09
2023-04-04T13:08:55.793Z,99299.03
2023-04-04T13:13:08.224Z,99291.09
2023-04-04T13:17:20.660Z,99305.59
2023-04-04T13:21:33.267Z,99309.66
2023-04-04T13:25:45.847Z,99313.84
2023-04-04T13:29:58.260Z,99327.06
2023-04-04T13:34:10.828Z,99316.13
2023-04-04T13:38:25.240Z,99324.09
2023-04-04T13:42:39.117Z,99333.72
2023-04-04T13:46:51.596Z,99336.56
2023-04-04T13:51:04.148Z,99341.75
2023-04-04T13:55:17.167Z,99347.75
2023-04-04T13:59:29.646Z,99348.34
2023-04-04T14:03:42.410Z,99352.47
2023-04-04T14:07:54.676Z,99363.16
2023-04-04T14:12:07.566Z,99367.28
2023-04-04T14:16:19.926Z,99379.91
2023-04-04T14:20:33.421Z,99386.47
2023-04-04T14:24:46.630Z,99389.44
2023-04-04T14:28:58.977Z,99393.91
2023-04-04T14:33:11.352Z,99404.72
2023-04-04T14:37:24.331Z,99411.53
2023-04-04T14:41:36.849Z,99418.06
2023-04-04T14:45:49.276Z,99416.63
2023-04-04T14:50:01.982Z,99427.44
2023-04-04T14:54:14.218Z,99426.00
2023-04-04T14:58:26.665Z,99435.78
2023-04-04T15:02:39.015Z,99447.06
2023-04-04T15:06:54.683Z,99443.78
2023-04-04T15:11:07.551Z,99460.91
2023-04-04T15:15:21.104Z,99464.66
2023-04-04T15:19:34.935Z,99471.84
2023-04-04T15:23:47.446Z,99494.31
2023-04-04T15:28:01.409Z,99497.00
2023-04-04T15:32:14.002Z,99502.38
2023-04-04T15:36:28.861Z,99502.25
2023-04-04T15:40:41.742Z,99510.28
2023-04-04T15:58:41.814Z,99541.38
2023-04-04T16:02:58.657Z,99544.97
2023-04-04T16:07:11.146Z,99541.59
2023-04-04T16:11:23.792Z,99541.78
2023-04-04T16:15:36.181Z,99549.59
2023-04-04T16:19:48.562Z,99560.25
2023-04-04T16:24:01.134Z,99559.34
2023-04-04T16:28:13.497Z,99569.91
2023-04-04T16:32:26.121Z,99568.22
2023-04-04T16:36:38.886Z,99582.41
2023-04-04T16:40:51.261Z,99586.91
2023-04-04T16:45:04.056Z,99592.16
2023-04-04T16:49:16.721Z,99592.19
2023-04-04T16:53:29.064Z,99590.41
2023-04-04T16:57:42.293Z,99594.97
2023-04-04T17:01:55.236Z,99609.16
2023-04-04T17:06:08.039Z,99616.25
2023-04-04T17:10:20.526Z,99622.44
2023-04-04T17:14:33.783Z,99635.66
2023-04-04T17:18:46.691Z,99639.38
2023-04-04T17:22:59.228Z,99639.34
2023-04-04T17:27:11.632Z,99651.69
2023-04-04T17:31:24.196Z,99656.19
2023-04-04T17:35:36.950Z,99660.69
2023-04-04T17:39:49.549Z,99663.38
2023-04-04T17:44:02.220Z,99671.31
2023-04-04T17:48:14.820Z,99674.06
2023-04-04T17:52:27.447Z,99687.28
2023-04-04T17:56:39.833Z,99704.03
2023-04-04T18:00:56.026Z,99713.75
2023-04-04T18:05:10.400Z,99719.03
2023-04-04T18:09:23.811Z,99721.66
2023-04-04T18:13:36.506Z,99723.44
2023-04-04T18:17:49.174Z,99731.31
2023-04-04T18:22:01.857Z,99741.84
2023-04-04T18:26:14.284Z,99750.63
2023-04-04T18:30:27.973Z,99756.78
2023-04-04T18:34:40.452Z,99767.28
2023-04-04T18:38:52.925Z,99764.69
2023-04-04T18:43:06.278Z,99763.78
2023-04-04T18:47:18.731Z,99771.69
2023-04-04T18:51:31.136Z,99766.44
2023-04-04T18:55:43.463Z,99762.03
2023-04-04T18:59:55.970Z,99769.03
2023-04-04T19:04:09.039Z,99771.59
2023-04-04T19:08:21.597Z,99775.97
2023-04-04T19:12:34.722Z,99783.88
2023-04-04T19:16:47.970Z,99787.38
2023-04-04T19:21:00.503Z,99789.13
2023-04-04T19:25:18.933Z,99799.63
2023-04-04T19:29:32.348Z,99807.53
2023-04-04T19:33:44.880Z,99798.78
2023-04-04T19:37:57.329Z,99812.78
2023-04-04T19:42:12.491Z,99816.31
2023-04-04T19:46:29.743Z,99818.97
2023-04-04T19:50:42.143Z,99826.03
2023-04-04T19:54:54.535Z,99829.50
2023-04-04T19:59:10.507Z,99832.19
2023-04-04T20:03:34.569Z,99837.47
2023-04-04T20:07:46.953Z,99841.84
2023-04-04T20:11:59.269Z,99848.03
2023-04-04T20:16:16.510Z,99840.13
2023-04-04T20:20:53.202Z,99855.06
2023-04-04T20:25:31.129Z,99862.09
2023-04-04T20:29:44.004Z,99862.97
2023-04-04T20:33:56.506Z,99863.88
2023-04-04T20:38:08.892Z,99871.75
2023-04-04T20:42:34.172Z,99868.28
2023-04-04T20:46:47.834Z,99874.41
2023-04-04T20:51:00.255Z,99877.94
2023-04-04T20:55:13.079Z,99890.22
2023-04-04T20:59:38.590Z,99894.63
2023-04-04T21:03:52.215Z,99891.09
2023-04-04T21:08:35.007Z,99891.97
2023-04-04T21:12:47.439Z,99893.75
2023-04-04T21:16:59.824Z,99893.75
2023-04-04T21:21:19.508Z,99896.34
2023-04-04T21:25:59.668Z,99899.88
2023-04-04T21:30:43.129Z,99904.25
2023-04-04T21:34:55.664Z,99909.53
2023-04-04T21:39:16.285Z,99909.56
2023-04-04T21:43:29.094Z,99919.19
2023-04-04T21:47:41.474Z,99917.44
2023-04-04T21:51:53.917Z,99916.53
2023-04-04T21:56:06.427Z,99921.81
2023-04-04T22:00:18.988Z,99920.94
2023-04-04T22:04:31.433Z,99927.97
2023-04-04T22:08:43.887Z,99935.00
2023-04-04T22:12:59.675Z,99931.50
2023-04-04T22:17:23.042Z,99936.78
2023-04-04T22:21:37.346Z,99943.81
2023-04-04T22:25:51.846Z,99944.66
2023-04-04T22:30:06.246Z,99940.28
2023-04-04T22:34:18.644Z,99944.66
2023-04-04T22:38:31.340Z,99949.06
2023-04-04T22:42:43.749Z,99951.69
2023-04-04T22:46:58.756Z,99949.97
2023-04-04T22:51:15.207Z,99961.31
2023-04-04T22:55:28.248Z,99963.06
2023-04-04T22:59:40.709Z,99964.00
2023-04-04T23:03:53.113Z,99969.22
2023-04-04T23:08:05.719Z,99973.66
2023-04-04T23:12:18.172Z,99979.81
2023-04-04T23:16:31.165Z,99973.66
2023-04-04T23:20:43.919Z,99978.03
2023-04-04T23:24:56.681Z,99978.91
2023-04-04T23:29:10.117Z,99984.19
2023-04-04T23:33:22.465Z,100000.00
2023-04-04T23:37:35.980Z,100001.78
2023-04-04T23:41:48.456Z,100004.38
2023-04-04T23:46:00.829Z,100007.88
2023-04-04T23:50:13.345Z,100003.50
2023-04-04T23:54:25.916Z,100007.00
2023-04-04T23:58:39.109Z,100007.00
